Othello — LXOD — position and weather

sailwx.info

Track history (hours):
 
Tides and Currents Weather Stations Pressure Air Temp Water Temp Dewpoint Dewpoint Depression Visibility Wind Speed Wind Dir Waves Ship Positions

Othello

Last reported at 2015-Sep-04 18:31 UTC. Time now 2015-Sep-04 18:49 UTC.
Position N 51°53' E 004°24'.

Length 104 m; draft 5.1 m.

Type: Ship. MMSI: 253279000.

Date/timePositionNaut miles runAvg speedWind from/ knotsBaromVisibWave heightAir tempDewpointWater temp
2015-Sep-04 18:31N 51°53' E 004°24'0 0.0
2015-Sep-04 17:31N 51°53' E 004°24'0 0.0
2015-Sep-04 16:28N 51°53' E 004°24'0 0.0
2015-Sep-04 15:19N 51°53' E 004°24'0 0.0
2015-Sep-04 12:25N 51°53' E 004°24'0 0.0
2015-Sep-04 09:04N 51°53' E 004°24'0 0.0
2015-Sep-04 08:04N 51°53' E 004°24'0 0.0
2015-Sep-04 07:31N 51°53' E 004°24'0 0.0
2015-Sep-04 06:25N 51°53' E 004°24'0 0.0
2015-Sep-04 05:31N 51°53' E 004°24'0 0.0
2015-Sep-04 04:10N 51°53' E 004°24'0 0.0
2015-Sep-04 03:19N 51°53' E 004°24'0 0.0
2015-Sep-04 01:31N 51°53' E 004°24'0 0.0
2015-Sep-03 23:19N 51°53' E 004°24'0 0.0
2015-Sep-03 21:19N 51°53' E 004°24'0 0.0
2015-Sep-03 20:25N 51°53' E 004°24'0 0.0
2015-Sep-03 19:25N 51°53' E 004°24'0 0.0
2015-Sep-03 18:10N 51°53' E 004°24'0 0.0
2015-Sep-03 16:31N 51°53' E 004°24'0 0.0
2015-Sep-03 15:31N 51°53' E 004°24'1 1.2
2015-Sep-03 14:33N 51°54' E 004°22'3 3.4
2015-Sep-03 13:34N 51°51' E 004°23'9 9.3
2015-Sep-03 12:33N 51°48' E 004°38'1 0.7
2015-Sep-03 11:32N 51°47' E 004°38'0 0.0
2015-Sep-03 10:26N 51°47' E 004°38'0 0.0
2015-Sep-03 09:08N 51°47' E 004°38'0 0.0
2015-Sep-03 08:26N 51°47' E 004°38'0 0.0
2015-Sep-03 07:23N 51°47' E 004°38'0 0.0
2015-Sep-03 06:29N 51°47' E 004°38'0 0.0
2015-Sep-03 05:32N 51°47' E 004°38'0 0.0
2015-Sep-03 04:23N 51°47' E 004°38'0 0.0
2015-Sep-03 03:32N 51°47' E 004°38'0 0.0
2015-Sep-03 02:26N 51°47' E 004°38'0 0.0
2015-Sep-03 01:29N 51°47' E 004°38'0 0.0
2015-Sep-03 00:26N 51°47' E 004°38'0 0.0
2015-Sep-02 23:32N 51°47' E 004°38'0 0.0
2015-Sep-02 22:32N 51°47' E 004°38'0 0.0
2015-Sep-02 21:32N 51°47' E 004°38'0 0.0
2015-Sep-02 20:32N 51°47' E 004°38'0 0.0
2015-Sep-02 19:32N 51°47' E 004°38'0 0.0
2015-Sep-02 18:32N 51°47' E 004°38'0 0.0
2015-Sep-02 17:26N 51°47' E 004°38'0 0.0
2015-Sep-02 16:32N 51°47' E 004°38'0 0.0
2015-Sep-02 15:29N 51°47' E 004°38'0 0.2
2015-Sep-02 14:34N 51°47' E 004°38'6 6.2
2015-Sep-02 13:33N 51°50' E 004°29'8 8.0
2015-Sep-02 12:33N 51°54' E 004°18'1010.4
2015-Sep-02 11:34N 51°59' E 004°03'9 9.3
2015-Sep-02 10:33N 51°58' E 003°48'0 0.4
2015-Sep-02 09:31N 51°57' E 003°49'0 0.1
2015-Sep-02 08:31N 51°57' E 003°49'0 0.1
2015-Sep-02 07:25N 51°58' E 003°49'0 0.0
2015-Sep-02 05:25N 51°58' E 003°49'0 0.0
2015-Sep-02 04:25N 51°58' E 003°49'0 0.0
2015-Sep-02 03:28N 51°58' E 003°49'0 0.1
2015-Sep-02 02:25N 51°57' E 003°49'0 0.1
2015-Sep-02 01:25N 51°57' E 003°49'0 0.0
2015-Sep-02 00:31N 51°57' E 003°49'0 0.0
2015-Sep-01 23:31N 51°57' E 003°49'0 0.0
2015-Sep-01 22:28N 51°57' E 003°49'0 0.0
2015-Sep-01 21:31N 51°57' E 003°49'0 0.0
2015-Sep-01 20:31N 51°57' E 003°49'0 0.1
2015-Sep-01 19:31N 51°57' E 003°49'0 0.1
2015-Sep-01 18:31N 51°57' E 003°49'1010.1
2015-Sep-01 17:33N 51°56' E 003°33'5714.0
2015-Sep-01 13:30N 51°28' E 002°14'1213.1
2015-Sep-01 12:33N 51°17' E 002°06'1212.2
2015-Sep-01 11:33N 51°09' E 001°50'1111.3
2015-Sep-01 10:33N 51°01' E 001°37'9 9.4
2015-Sep-01 09:33N 50°54' E 001°28'9 7.9
2015-Sep-01 08:28N 50°46' E 001°23'  
2015-Aug-29 11:33N 43°22' W 003°06'  
2015-Aug-27 02:22N 39°45' W 009°57'1512.5
2015-Aug-27 01:11N 39°30' W 009°57'812.4
2015-Aug-27 00:33N 39°22' W 009°57'1212.0
2015-Aug-26 23:34N 39°10' W 009°57'1212.2
2015-Aug-26 22:34N 38°58' W 009°57'1212.2
2015-Aug-26 21:34N 38°46' W 009°57'1212.1
2015-Aug-26 20:34N 38°34' W 009°54'1212.3
2015-Aug-26 19:33N 38°22' W 009°51'1212.2
2015-Aug-26 18:34N 38°10' W 009°47'1212.3
2015-Aug-26 17:34N 37°58' W 009°44'1212.1
2015-Aug-26 16:34N 37°46' W 009°40'1211.9
2015-Aug-26 15:34N 37°35' W 009°37'1211.9
2015-Aug-26 14:34N 37°23' W 009°34'1212.0
2015-Aug-26 13:33N 37°11' W 009°30'1212.0
2015-Aug-26 12:33N 36°60' W 009°27'3611.0
2015-Aug-26 09:15N 36°36' W 008°53'812.0
2015-Aug-26 08:34N 36°33' W 008°43'1212.2
2015-Aug-26 07:32N 36°29' W 008°28'1212.7
2015-Aug-26 06:33N 36°25' W 008°13'1312.8
2015-Aug-26 05:33N 36°22' W 007°58'  
Track history (hours):
 
Tides and Currents Weather Stations Pressure Air Temp Water Temp Dewpoint Dewpoint Depression Visibility Wind Speed Wind Dir Waves Ship Positions

Othello

Last reported at 2015-Sep-04 18:31 UTC. Time now 2015-Sep-04 18:49 UTC.
Position N 51°53' E 004°24'.

Length 104 m; draft 5.1 m.

Type: Ship. MMSI: 253279000.

Date/timePositionNaut miles runAvg speedWind from/ knotsBaromVisibWave heightAir tempDewpointWater temp
2015-Sep-04 18:31N 51°53' E 004°24'0 0.0
2015-Sep-04 17:31N 51°53' E 004°24'0 0.0
2015-Sep-04 16:28N 51°53' E 004°24'0 0.0
2015-Sep-04 15:19N 51°53' E 004°24'0 0.0
2015-Sep-04 12:25N 51°53' E 004°24'0 0.0
2015-Sep-04 09:04N 51°53' E 004°24'0 0.0
2015-Sep-04 08:04N 51°53' E 004°24'0 0.0
2015-Sep-04 07:31N 51°53' E 004°24'0 0.0
2015-Sep-04 06:25N 51°53' E 004°24'0 0.0
2015-Sep-04 05:31N 51°53' E 004°24'0 0.0
2015-Sep-04 04:10N 51°53' E 004°24'0 0.0
2015-Sep-04 03:19N 51°53' E 004°24'0 0.0
2015-Sep-04 01:31N 51°53' E 004°24'0 0.0
2015-Sep-03 23:19N 51°53' E 004°24'0 0.0
2015-Sep-03 21:19N 51°53' E 004°24'0 0.0
2015-Sep-03 20:25N 51°53' E 004°24'0 0.0
2015-Sep-03 19:25N 51°53' E 004°24'0 0.0
2015-Sep-03 18:10N 51°53' E 004°24'0 0.0
2015-Sep-03 16:31N 51°53' E 004°24'0 0.0
2015-Sep-03 15:31N 51°53' E 004°24'1 1.2
2015-Sep-03 14:33N 51°54' E 004°22'3 3.4
2015-Sep-03 13:34N 51°51' E 004°23'9 9.3
2015-Sep-03 12:33N 51°48' E 004°38'1 0.7
2015-Sep-03 11:32N 51°47' E 004°38'0 0.0
2015-Sep-03 10:26N 51°47' E 004°38'0 0.0
2015-Sep-03 09:08N 51°47' E 004°38'0 0.0
2015-Sep-03 08:26N 51°47' E 004°38'0 0.0
2015-Sep-03 07:23N 51°47' E 004°38'0 0.0
2015-Sep-03 06:29N 51°47' E 004°38'0 0.0
2015-Sep-03 05:32N 51°47' E 004°38'0 0.0
2015-Sep-03 04:23N 51°47' E 004°38'0 0.0
2015-Sep-03 03:32N 51°47' E 004°38'0 0.0
2015-Sep-03 02:26N 51°47' E 004°38'0 0.0
2015-Sep-03 01:29N 51°47' E 004°38'0 0.0
2015-Sep-03 00:26N 51°47' E 004°38'0 0.0
2015-Sep-02 23:32N 51°47' E 004°38'0 0.0
2015-Sep-02 22:32N 51°47' E 004°38'0 0.0
2015-Sep-02 21:32N 51°47' E 004°38'0 0.0
2015-Sep-02 20:32N 51°47' E 004°38'0 0.0
2015-Sep-02 19:32N 51°47' E 004°38'0 0.0
2015-Sep-02 18:32N 51°47' E 004°38'0 0.0
2015-Sep-02 17:26N 51°47' E 004°38'0 0.0
2015-Sep-02 16:32N 51°47' E 004°38'0 0.0
2015-Sep-02 15:29N 51°47' E 004°38'0 0.2
2015-Sep-02 14:34N 51°47' E 004°38'6 6.2
2015-Sep-02 13:33N 51°50' E 004°29'8 8.0
2015-Sep-02 12:33N 51°54' E 004°18'1010.4
2015-Sep-02 11:34N 51°59' E 004°03'9 9.3
2015-Sep-02 10:33N 51°58' E 003°48'0 0.4
2015-Sep-02 09:31N 51°57' E 003°49'0 0.1
2015-Sep-02 08:31N 51°57' E 003°49'0 0.1
2015-Sep-02 07:25N 51°58' E 003°49'0 0.0
2015-Sep-02 05:25N 51°58' E 003°49'0 0.0
2015-Sep-02 04:25N 51°58' E 003°49'0 0.0
2015-Sep-02 03:28N 51°58' E 003°49'0 0.1
2015-Sep-02 02:25N 51°57' E 003°49'0 0.1
2015-Sep-02 01:25N 51°57' E 003°49'0 0.0
2015-Sep-02 00:31N 51°57' E 003°49'0 0.0
2015-Sep-01 23:31N 51°57' E 003°49'0 0.0
2015-Sep-01 22:28N 51°57' E 003°49'0 0.0
2015-Sep-01 21:31N 51°57' E 003°49'0 0.0
2015-Sep-01 20:31N 51°57' E 003°49'0 0.1
2015-Sep-01 19:31N 51°57' E 003°49'0 0.1
2015-Sep-01 18:31N 51°57' E 003°49'1010.1
2015-Sep-01 17:33N 51°56' E 003°33'5714.0
2015-Sep-01 13:30N 51°28' E 002°14'1213.1
2015-Sep-01 12:33N 51°17' E 002°06'1212.2
2015-Sep-01 11:33N 51°09' E 001°50'1111.3
2015-Sep-01 10:33N 51°01' E 001°37'9 9.4
2015-Sep-01 09:33N 50°54' E 001°28'9 7.9
2015-Sep-01 08:28N 50°46' E 001°23'  
2015-Aug-29 11:33N 43°22' W 003°06'  
2015-Aug-27 02:22N 39°45' W 009°57'1512.5
2015-Aug-27 01:11N 39°30' W 009°57'812.4
2015-Aug-27 00:33N 39°22' W 009°57'1212.0
2015-Aug-26 23:34N 39°10' W 009°57'1212.2
2015-Aug-26 22:34N 38°58' W 009°57'1212.2
2015-Aug-26 21:34N 38°46' W 009°57'1212.1
2015-Aug-26 20:34N 38°34' W 009°54'1212.3
2015-Aug-26 19:33N 38°22' W 009°51'1212.2
2015-Aug-26 18:34N 38°10' W 009°47'1212.3
2015-Aug-26 17:34N 37°58' W 009°44'1212.1
2015-Aug-26 16:34N 37°46' W 009°40'1211.9
2015-Aug-26 15:34N 37°35' W 009°37'1211.9
2015-Aug-26 14:34N 37°23' W 009°34'1212.0
2015-Aug-26 13:33N 37°11' W 009°30'1212.0
2015-Aug-26 12:33N 36°60' W 009°27'3611.0
2015-Aug-26 09:15N 36°36' W 008°53'812.0
2015-Aug-26 08:34N 36°33' W 008°43'1212.2
2015-Aug-26 07:32N 36°29' W 008°28'1212.7
2015-Aug-26 06:33N 36°25' W 008°13'1312.8
2015-Aug-26 05:33N 36°22' W 007°58'  

Dump ship's entire track history